sensor_id;sensor_type;location;lat;lon;timestamp;temperature;humidity
42199;DHT22;27868;45.184;5.786;2023-02-08T00:02:21;5.00;72.30
42199;DHT22;27868;45.184;5.786;2023-02-08T00:05:06;4.90;72.30
42199;DHT22;27868;45.184;5.786;2023-02-08T00:07:50;4.90;72.40
42199;DHT22;27868;45.184;5.786;2023-02-08T00:10:35;4.80;72.30
42199;DHT22;27868;45.184;5.786;2023-02-08T00:13:20;4.90;72.40
42199;DHT22;27868;45.184;5.786;2023-02-08T00:16:06;4.80;72.50
42199;DHT22;27868;45.184;5.786;2023-02-08T00:18:50;4.80;72.50
42199;DHT22;27868;45.184;5.786;2023-02-08T00:21:35;4.80;72.60
42199;DHT22;27868;45.184;5.786;2023-02-08T00:24:19;4.70;72.80
42199;DHT22;27868;45.184;5.786;2023-02-08T00:27:04;4.80;72.80
42199;DHT22;27868;45.184;5.786;2023-02-08T00:29:49;4.70;72.70
42199;DHT22;27868;45.184;5.786;2023-02-08T00:32:33;4.70;72.70
42199;DHT22;27868;45.184;5.786;2023-02-08T00:35:18;4.70;72.80
42199;DHT22;27868;45.184;5.786;2023-02-08T00:38:02;4.60;72.70
42199;DHT22;27868;45.184;5.786;2023-02-08T00:40:47;4.70;72.80
42199;DHT22;27868;45.184;5.786;2023-02-08T00:43:32;4.70;73.00
42199;DHT22;27868;45.184;5.786;2023-02-08T00:46:18;4.50;73.00
42199;DHT22;27868;45.184;5.786;2023-02-08T00:49:04;4.60;73.00
42199;DHT22;27868;45.184;5.786;2023-02-08T00:51:48;4.50;73.00
42199;DHT22;27868;45.184;5.786;2023-02-08T00:54:33;4.50;73.10
42199;DHT22;27868;45.184;5.786;2023-02-08T00:57:17;4.50;73.20
42199;DHT22;27868;45.184;5.786;2023-02-08T01:00:03;4.50;73.30
42199;DHT22;27868;45.184;5.786;2023-02-08T01:02:48;4.50;73.40
42199;DHT22;27868;45.184;5.786;2023-02-08T01:05:33;4.50;73.50
42199;DHT22;27868;45.184;5.786;2023-02-08T01:08:18;4.50;73.60
42199;DHT22;27868;45.184;5.786;2023-02-08T01:11:14;4.40;73.60
42199;DHT22;27868;45.184;5.786;2023-02-08T01:13:59;4.40;73.80
42199;DHT22;27868;45.184;5.786;2023-02-08T01:16:44;4.40;73.90
42199;DHT22;27868;45.184;5.786;2023-02-08T01:19:28;4.50;73.80
42199;DHT22;27868;45.184;5.786;2023-02-08T01:22:13;4.30;73.90
42199;DHT22;27868;45.184;5.786;2023-02-08T01:24:58;4.40;74.00
42199;DHT22;27868;45.184;5.786;2023-02-08T01:27:44;4.40;74.00
42199;DHT22;27868;45.184;5.786;2023-02-08T01:30:28;4.30;74.00
42199;DHT22;27868;45.184;5.786;2023-02-08T01:33:13;4.30;74.00
42199;DHT22;27868;45.184;5.786;2023-02-08T01:35:58;4.30;74.10
42199;DHT22;27868;45.184;5.786;2023-02-08T01:38:43;4.20;74.10
42199;DHT22;27868;45.184;5.786;2023-02-08T01:41:38;4.20;74.20
42199;DHT22;27868;45.184;5.786;2023-02-08T01:47:50;4.20;74.70
42199;DHT22;27868;45.184;5.786;2023-02-08T01:51:00;4.10;74.50
42199;DHT22;27868;45.184;5.786;2023-02-08T01:53:48;4.10;74.90
42199;DHT22;27868;45.184;5.786;2023-02-08T01:56:36;4.20;74.70
42199;DHT22;27868;45.184;5.786;2023-02-08T01:59:26;4.20;74.50
42199;DHT22;27868;45.184;5.786;2023-02-08T02:02:18;4.20;74.50
42199;DHT22;27868;45.184;5.786;2023-02-08T02:05:05;4.20;74.40
42199;DHT22;27868;45.184;5.786;2023-02-08T02:07:51;4.10;74.40
42199;DHT22;27868;45.184;5.786;2023-02-08T02:10:39;4.10;74.60
42199;DHT22;27868;45.184;5.786;2023-02-08T02:13:25;4.20;74.70
42199;DHT22;27868;45.184;5.786;2023-02-08T02:16:10;4.10;74.80
42199;DHT22;27868;45.184;5.786;2023-02-08T02:18:55;4.10;74.80
42199;DHT22;27868;45.184;5.786;2023-02-08T02:22:10;4.20;74.90
42199;DHT22;27868;45.184;5.786;2023-02-08T02:39:58;4.10;75.70
42199;DHT22;27868;45.184;5.786;2023-02-08T02:43:05;4.10;75.80
42199;DHT22;27868;45.184;5.786;2023-02-08T02:49:12;4.10;75.80
42199;DHT22;27868;45.184;5.786;2023-02-08T02:52:07;4.10;75.70
42199;DHT22;27868;45.184;5.786;2023-02-08T02:54:57;4.00;75.80
42199;DHT22;27868;45.184;5.786;2023-02-08T02:57:46;4.00;75.70
42199;DHT22;27868;45.184;5.786;2023-02-08T03:00:33;4.00;75.90
42199;DHT22;27868;45.184;5.786;2023-02-08T03:03:21;4.00;76.00
42199;DHT22;27868;45.184;5.786;2023-02-08T03:06:13;4.10;76.10
42199;DHT22;27868;45.184;5.786;2023-02-08T03:15:10;4.00;76.30
42199;DHT22;27868;45.184;5.786;2023-02-08T03:18:28;4.00;76.40
42199;DHT22;27868;45.184;5.786;2023-02-08T03:24:19;3.90;76.30
42199;DHT22;27868;45.184;5.786;2023-02-08T03:29:54;3.90;76.10
42199;DHT22;27868;45.184;5.786;2023-02-08T03:32:50;3.90;76.10
42199;DHT22;27868;45.184;5.786;2023-02-08T03:35:41;3.80;76.10
42199;DHT22;27868;45.184;5.786;2023-02-08T03:38:28;3.80;76.00
42199;DHT22;27868;45.184;5.786;2023-02-08T03:41:21;3.80;76.10
42199;DHT22;27868;45.184;5.786;2023-02-08T03:44:33;3.70;76.00
42199;DHT22;27868;45.184;5.786;2023-02-08T03:47:26;3.70;76.10
42199;DHT22;27868;45.184;5.786;2023-02-08T03:50:14;3.70;76.20
42199;DHT22;27868;45.184;5.786;2023-02-08T03:53:01;3.80;76.40
42199;DHT22;27868;45.184;5.786;2023-02-08T03:55:51;3.70;76.40
42199;DHT22;27868;45.184;5.786;2023-02-08T03:58:45;3.70;76.50
42199;DHT22;27868;45.184;5.786;2023-02-08T04:01:40;3.70;76.50
42199;DHT22;27868;45.184;5.786;2023-02-08T04:04:30;3.70;76.50
42199;DHT22;27868;45.184;5.786;2023-02-08T04:07:18;3.70;76.60
42199;DHT22;27868;45.184;5.786;2023-02-08T04:10:03;3.60;76.40
42199;DHT22;27868;45.184;5.786;2023-02-08T04:12:48;3.60;76.40
42199;DHT22;27868;45.184;5.786;2023-02-08T04:15:32;3.60;76.40
42199;DHT22;27868;45.184;5.786;2023-02-08T04:18:17;3.60;76.50
42199;DHT22;27868;45.184;5.786;2023-02-08T04:21:01;3.60;76.60
42199;DHT22;27868;45.184;5.786;2023-02-08T04:23:45;3.50;76.70
42199;DHT22;27868;45.184;5.786;2023-02-08T04:26:30;3.50;76.70
42199;DHT22;27868;45.184;5.786;2023-02-08T04:29:14;3.50;76.80
42199;DHT22;27868;45.184;5.786;2023-02-08T04:31:59;3.50;76.90
42199;DHT22;27868;45.184;5.786;2023-02-08T04:34:44;3.50;76.90
42199;DHT22;27868;45.184;5.786;2023-02-08T04:37:28;3.50;77.10
42199;DHT22;27868;45.184;5.786;2023-02-08T04:40:13;3.50;77.70
42199;DHT22;27868;45.184;5.786;2023-02-08T04:42:57;3.50;77.00
42199;DHT22;27868;45.184;5.786;2023-02-08T04:45:42;3.50;77.10
42199;DHT22;27868;45.184;5.786;2023-02-08T04:48:27;3.40;77.10
42199;DHT22;27868;45.184;5.786;2023-02-08T04:51:11;3.50;77.20
42199;DHT22;27868;45.184;5.786;2023-02-08T04:53:57;3.40;77.00
42199;DHT22;27868;45.184;5.786;2023-02-08T04:56:41;3.40;76.90
42199;DHT22;27868;45.184;5.786;2023-02-08T04:59:26;3.50;76.90
42199;DHT22;27868;45.184;5.786;2023-02-08T05:02:11;3.40;76.80
42199;DHT22;27868;45.184;5.786;2023-02-08T05:04:55;3.40;76.90
42199;DHT22;27868;45.184;5.786;2023-02-08T05:07:40;3.40;77.00
42199;DHT22;27868;45.184;5.786;2023-02-08T05:10:25;3.40;77.10
42199;DHT22;27868;45.184;5.786;2023-02-08T05:13:10;3.40;77.30
42199;DHT22;27868;45.184;5.786;2023-02-08T05:15:54;3.40;77.00
42199;DHT22;27868;45.184;5.786;2023-02-08T05:18:39;3.40;77.00
42199;DHT22;27868;45.184;5.786;2023-02-08T05:21:24;3.30;76.90
42199;DHT22;27868;45.184;5.786;2023-02-08T05:24:08;3.40;77.10
42199;DHT22;27868;45.184;5.786;2023-02-08T05:26:56;3.40;77.20
42199;DHT22;27868;45.184;5.786;2023-02-08T05:29:40;3.30;77.30
42199;DHT22;27868;45.184;5.786;2023-02-08T05:32:26;3.30;77.70
42199;DHT22;27868;45.184;5.786;2023-02-08T05:35:11;3.30;77.90
42199;DHT22;27868;45.184;5.786;2023-02-08T05:37:55;3.30;78.10
42199;DHT22;27868;45.184;5.786;2023-02-08T05:40:40;3.30;79.00
42199;DHT22;27868;45.184;5.786;2023-02-08T05:43:24;3.30;78.50
42199;DHT22;27868;45.184;5.786;2023-02-08T05:46:09;3.30;78.50
42199;DHT22;27868;45.184;5.786;2023-02-08T05:48:54;3.30;78.40
42199;DHT22;27868;45.184;5.786;2023-02-08T05:51:38;3.20;78.30
42199;DHT22;27868;45.184;5.786;2023-02-08T05:54:23;3.20;78.30
42199;DHT22;27868;45.184;5.786;2023-02-08T05:57:08;3.20;78.30
42199;DHT22;27868;45.184;5.786;2023-02-08T05:59:52;3.20;78.10
42199;DHT22;27868;45.184;5.786;2023-02-08T06:02:37;3.20;78.10
42199;DHT22;27868;45.184;5.786;2023-02-08T06:05:21;3.20;78.20
42199;DHT22;27868;45.184;5.786;2023-02-08T06:08:06;3.20;78.10
42199;DHT22;27868;45.184;5.786;2023-02-08T06:10:51;3.10;77.90
42199;DHT22;27868;45.184;5.786;2023-02-08T06:13:36;3.10;77.90
42199;DHT22;27868;45.184;5.786;2023-02-08T06:16:22;3.10;78.00
42199;DHT22;27868;45.184;5.786;2023-02-08T06:19:06;3.10;78.20
42199;DHT22;27868;45.184;5.786;2023-02-08T06:21:51;3.10;78.30
42199;DHT22;27868;45.184;5.786;2023-02-08T06:24:35;3.10;78.40
42199;DHT22;27868;45.184;5.786;2023-02-08T06:27:20;3.10;78.10
42199;DHT22;27868;45.184;5.786;2023-02-08T06:30:05;3.10;78.10
42199;DHT22;27868;45.184;5.786;2023-02-08T06:32:50;3.00;78.70
42199;DHT22;27868;45.184;5.786;2023-02-08T06:35:34;3.00;77.90
42199;DHT22;27868;45.184;5.786;2023-02-08T06:38:19;3.00;77.80
42199;DHT22;27868;45.184;5.786;2023-02-08T06:41:04;3.00;77.80
42199;DHT22;27868;45.184;5.786;2023-02-08T06:43:49;2.90;77.80
42199;DHT22;27868;45.184;5.786;2023-02-08T06:46:33;3.00;77.90
42199;DHT22;27868;45.184;5.786;2023-02-08T06:49:18;2.90;77.80
42199;DHT22;27868;45.184;5.786;2023-02-08T06:52:02;2.90;77.80
42199;DHT22;27868;45.184;5.786;2023-02-08T06:54:47;2.90;77.80
42199;DHT22;27868;45.184;5.786;2023-02-08T06:57:32;2.90;77.80
42199;DHT22;27868;45.184;5.786;2023-02-08T07:00:16;2.90;77.90
42199;DHT22;27868;45.184;5.786;2023-02-08T07:03:01;2.90;78.10
42199;DHT22;27868;45.184;5.786;2023-02-08T07:05:46;2.90;78.30
42199;DHT22;27868;45.184;5.786;2023-02-08T07:08:32;2.90;78.30
42199;DHT22;27868;45.184;5.786;2023-02-08T07:11:19;2.90;78.50
42199;DHT22;27868;45.184;5.786;2023-02-08T07:14:04;2.90;78.70
42199;DHT22;27868;45.184;5.786;2023-02-08T07:16:49;2.90;78.80
42199;DHT22;27868;45.184;5.786;2023-02-08T07:19:34;2.90;79.00
42199;DHT22;27868;45.184;5.786;2023-02-08T07:22:19;2.90;79.20
42199;DHT22;27868;45.184;5.786;2023-02-08T07:25:05;2.90;79.40
42199;DHT22;27868;45.184;5.786;2023-02-08T07:27:50;2.90;79.60
42199;DHT22;27868;45.184;5.786;2023-02-08T07:30:36;2.90;79.60
42199;DHT22;27868;45.184;5.786;2023-02-08T07:33:21;2.90;79.60
42199;DHT22;27868;45.184;5.786;2023-02-08T07:36:07;2.90;79.60
42199;DHT22;27868;45.184;5.786;2023-02-08T07:38:52;2.90;79.50
42199;DHT22;27868;45.184;5.786;2023-02-08T07:41:37;2.90;79.50
42199;DHT22;27868;45.184;5.786;2023-02-08T07:44:21;2.90;79.60
42199;DHT22;27868;45.184;5.786;2023-02-08T07:47:06;2.90;79.50
42199;DHT22;27868;45.184;5.786;2023-02-08T07:49:51;2.90;79.50
42199;DHT22;27868;45.184;5.786;2023-02-08T07:52:36;2.90;79.80
42199;DHT22;27868;45.184;5.786;2023-02-08T07:55:21;3.60;80.00
42199;DHT22;27868;45.184;5.786;2023-02-08T07:58:06;2.90;79.50
42199;DHT22;27868;45.184;5.786;2023-02-08T08:00:50;2.90;79.60
42199;DHT22;27868;45.184;5.786;2023-02-08T08:03:35;2.90;79.80
42199;DHT22;27868;45.184;5.786;2023-02-08T08:06:21;2.90;79.90
42199;DHT22;27868;45.184;5.786;2023-02-08T08:09:06;2.90;80.10
42199;DHT22;27868;45.184;5.786;2023-02-08T08:11:51;2.90;80.20
42199;DHT22;27868;45.184;5.786;2023-02-08T08:14:36;2.90;80.40
42199;DHT22;27868;45.184;5.786;2023-02-08T08:17:21;2.90;80.50
42199;DHT22;27868;45.184;5.786;2023-02-08T08:20:07;2.90;80.80
42199;DHT22;27868;45.184;5.786;2023-02-08T08:22:51;3.00;81.00
42199;DHT22;27868;45.184;5.786;2023-02-08T08:25:37;3.00;81.00
42199;DHT22;27868;45.184;5.786;2023-02-08T08:28:22;3.00;81.10
42199;DHT22;27868;45.184;5.786;2023-02-08T08:31:11;2.90;81.20
42199;DHT22;27868;45.184;5.786;2023-02-08T08:33:56;3.00;82.20
42199;DHT22;27868;45.184;5.786;2023-02-08T08:36:41;3.00;81.60
42199;DHT22;27868;45.184;5.786;2023-02-08T08:39:27;3.00;81.90
42199;DHT22;27868;45.184;5.786;2023-02-08T08:42:11;3.00;81.70
42199;DHT22;27868;45.184;5.786;2023-02-08T08:44:56;3.00;81.60
42199;DHT22;27868;45.184;5.786;2023-02-08T08:47:41;3.10;81.70
42199;DHT22;27868;45.184;5.786;2023-02-08T08:50:26;3.00;81.60
42199;DHT22;27868;45.184;5.786;2023-02-08T08:53:10;3.00;81.60
42199;DHT22;27868;45.184;5.786;2023-02-08T08:55:55;3.00;81.60
42199;DHT22;27868;45.184;5.786;2023-02-08T08:58:40;3.10;81.50
42199;DHT22;27868;45.184;5.786;2023-02-08T09:01:27;3.10;81.40
42199;DHT22;27868;45.184;5.786;2023-02-08T09:04:11;3.10;81.40
42199;DHT22;27868;45.184;5.786;2023-02-08T09:06:56;3.10;81.30
42199;DHT22;27868;45.184;5.786;2023-02-08T09:09:40;3.10;81.40
42199;DHT22;27868;45.184;5.786;2023-02-08T09:12:25;3.10;81.30
42199;DHT22;27868;45.184;5.786;2023-02-08T09:15:10;3.10;81.40
42199;DHT22;27868;45.184;5.786;2023-02-08T09:17:55;3.20;81.30
42199;DHT22;27868;45.184;5.786;2023-02-08T09:20:40;3.20;81.30
42199;DHT22;27868;45.184;5.786;2023-02-08T09:23:25;3.20;81.30
42199;DHT22;27868;45.184;5.786;2023-02-08T09:26:11;3.20;81.00
42199;DHT22;27868;45.184;5.786;2023-02-08T09:28:56;3.30;81.10
42199;DHT22;27868;45.184;5.786;2023-02-08T09:31:41;3.30;81.10
42199;DHT22;27868;45.184;5.786;2023-02-08T09:34:26;3.30;81.00
42199;DHT22;27868;45.184;5.786;2023-02-08T09:37:11;3.40;81.10
42199;DHT22;27868;45.184;5.786;2023-02-08T09:39:56;3.40;81.20
42199;DHT22;27868;45.184;5.786;2023-02-08T09:46:15;3.40;81.00
42199;DHT22;27868;45.184;5.786;2023-02-08T09:49:03;3.50;80.90
42199;DHT22;27868;45.184;5.786;2023-02-08T09:52:12;3.50;80.90
42199;DHT22;27868;45.184;5.786;2023-02-08T09:55:08;3.60;81.10
42199;DHT22;27868;45.184;5.786;2023-02-08T09:57:57;3.50;81.10
42199;DHT22;27868;45.184;5.786;2023-02-08T10:00:45;3.50;81.30
42199;DHT22;27868;45.184;5.786;2023-02-08T10:03:40;3.60;81.30
42199;DHT22;27868;45.184;5.786;2023-02-08T10:06:28;3.60;81.10
42199;DHT22;27868;45.184;5.786;2023-02-08T10:09:14;3.60;81.30
42199;DHT22;27868;45.184;5.786;2023-02-08T10:12:28;3.60;81.30
42199;DHT22;27868;45.184;5.786;2023-02-08T10:16:03;3.70;81.10
42199;DHT22;27868;45.184;5.786;2023-02-08T10:21:51;3.80;80.90
42199;DHT22;27868;45.184;5.786;2023-02-08T10:30:56;3.90;80.30
42199;DHT22;27868;45.184;5.786;2023-02-08T10:34:03;3.90;79.40
42199;DHT22;27868;45.184;5.786;2023-02-08T10:36:52;4.00;79.70
42199;DHT22;27868;45.184;5.786;2023-02-08T10:39:38;4.00;79.70
42199;DHT22;27868;45.184;5.786;2023-02-08T10:42:26;4.10;79.70
42199;DHT22;27868;45.184;5.786;2023-02-08T10:45:25;4.10;79.40
42199;DHT22;27868;45.184;5.786;2023-02-08T10:48:15;4.20;79.30
42199;DHT22;27868;45.184;5.786;2023-02-08T10:51:00;4.10;78.80
42199;DHT22;27868;45.184;5.786;2023-02-08T10:53:46;4.20;78.80
42199;DHT22;27868;45.184;5.786;2023-02-08T10:56:54;4.30;78.60
42199;DHT22;27868;45.184;5.786;2023-02-08T10:59:48;4.30;78.30
42199;DHT22;27868;45.184;5.786;2023-02-08T11:02:39;4.40;78.30
42199;DHT22;27868;45.184;5.786;2023-02-08T11:08:50;4.40;77.60
42199;DHT22;27868;45.184;5.786;2023-02-08T11:11:23;4.40;77.70
42199;DHT22;27868;45.184;5.786;2023-02-08T11:14:16;4.50;77.70
42199;DHT22;27868;45.184;5.786;2023-02-08T11:17:02;4.60;77.80
42199;DHT22;27868;45.184;5.786;2023-02-08T11:19:49;4.60;77.60
42199;DHT22;27868;45.184;5.786;2023-02-08T11:22:34;4.60;77.70
42199;DHT22;27868;45.184;5.786;2023-02-08T11:25:35;4.70;77.40
42199;DHT22;27868;45.184;5.786;2023-02-08T11:28:38;4.70;77.40
42199;DHT22;27868;45.184;5.786;2023-02-08T11:31:22;4.80;77.10
42199;DHT22;27868;45.184;5.786;2023-02-08T11:34:10;4.80;77.20
42199;DHT22;27868;45.184;5.786;2023-02-08T11:36:56;4.80;76.90
42199;DHT22;27868;45.184;5.786;2023-02-08T11:39:53;4.80;77.00
42199;DHT22;27868;45.184;5.786;2023-02-08T11:42:41;4.90;76.90
42199;DHT22;27868;45.184;5.786;2023-02-08T11:45:32;4.90;76.20
42199;DHT22;27868;45.184;5.786;2023-02-08T11:48:33;4.90;76.30
42199;DHT22;27868;45.184;5.786;2023-02-08T11:51:30;4.90;76.80
42199;DHT22;27868;45.184;5.786;2023-02-08T11:54:38;5.00;76.80
42199;DHT22;27868;45.184;5.786;2023-02-08T11:57:25;5.00;76.60
42199;DHT22;27868;45.184;5.786;2023-02-08T12:00:22;5.10;76.70
42199;DHT22;27868;45.184;5.786;2023-02-08T12:03:15;5.10;75.50
42199;DHT22;27868;45.184;5.786;2023-02-08T12:21:50;5.30;74.50
42199;DHT22;27868;45.184;5.786;2023-02-08T12:28:09;5.40;75.20
42199;DHT22;27868;45.184;5.786;2023-02-08T12:43:50;5.70;75.10
42199;DHT22;27868;45.184;5.786;2023-02-08T12:52:53;5.90;73.90
42199;DHT22;27868;45.184;5.786;2023-02-08T12:55:41;6.00;73.90
42199;DHT22;27868;45.184;5.786;2023-02-08T13:01:23;6.20;73.50
42199;DHT22;27868;45.184;5.786;2023-02-08T13:07:02;6.30;72.90
42199;DHT22;27868;45.184;5.786;2023-02-08T13:09:55;6.40;73.00
42199;DHT22;27868;45.184;5.786;2023-02-08T13:12:47;6.40;70.10
42199;DHT22;27868;45.184;5.786;2023-02-08T13:15:44;6.40;68.80
42199;DHT22;27868;45.184;5.786;2023-02-08T13:19:01;6.50;71.80
42199;DHT22;27868;45.184;5.786;2023-02-08T13:21:40;6.50;69.20
42199;DHT22;27868;45.184;5.786;2023-02-08T13:24:37;6.60;71.30
42199;DHT22;27868;45.184;5.786;2023-02-08T13:27:22;6.70;70.80
42199;DHT22;27868;45.184;5.786;2023-02-08T13:30:16;6.80;70.20
42199;DHT22;27868;45.184;5.786;2023-02-08T13:33:16;6.90;69.80
42199;DHT22;27868;45.184;5.786;2023-02-08T13:36:02;7.00;70.70
42199;DHT22;27868;45.184;5.786;2023-02-08T13:38:48;7.10;70.90
42199;DHT22;27868;45.184;5.786;2023-02-08T13:41:34;7.10;70.10
42199;DHT22;27868;45.184;5.786;2023-02-08T13:44:28;7.20;69.90
42199;DHT22;27868;45.184;5.786;2023-02-08T13:47:32;7.30;70.00
42199;DHT22;27868;45.184;5.786;2023-02-08T13:56:50;7.60;70.20
42199;DHT22;27868;45.184;5.786;2023-02-08T13:59:37;7.60;69.40
42199;DHT22;27868;45.184;5.786;2023-02-08T14:02:25;7.60;66.80
42199;DHT22;27868;45.184;5.786;2023-02-08T14:05:33;7.70;68.80
42199;DHT22;27868;45.184;5.786;2023-02-08T14:08:23;7.80;68.60
42199;DHT22;27868;45.184;5.786;2023-02-08T14:14:34;7.90;67.40
42199;DHT22;27868;45.184;5.786;2023-02-08T14:17:28;7.90;67.70
42199;DHT22;27868;45.184;5.786;2023-02-08T14:20:33;8.00;67.60
42199;DHT22;27868;45.184;5.786;2023-02-08T14:23:22;8.00;67.40
42199;DHT22;27868;45.184;5.786;2023-02-08T14:26:14;8.00;67.80
42199;DHT22;27868;45.184;5.786;2023-02-08T14:29:04;8.00;67.80
42199;DHT22;27868;45.184;5.786;2023-02-08T14:31:50;8.10;67.20
42199;DHT22;27868;45.184;5.786;2023-02-08T14:34:37;8.10;66.50
42199;DHT22;27868;45.184;5.786;2023-02-08T14:49:26;8.20;65.50
42199;DHT22;27868;45.184;5.786;2023-02-08T14:52:29;8.30;65.20
42199;DHT22;27868;45.184;5.786;2023-02-08T14:55:22;8.30;63.70
42199;DHT22;27868;45.184;5.786;2023-02-08T14:58:13;8.30;64.40
42199;DHT22;27868;45.184;5.786;2023-02-08T15:01:03;8.30;64.50
42199;DHT22;27868;45.184;5.786;2023-02-08T15:03:53;8.30;64.20
42199;DHT22;27868;45.184;5.786;2023-02-08T15:06:47;8.30;63.80
42199;DHT22;27868;45.184;5.786;2023-02-08T15:09:39;8.30;64.50
42199;DHT22;27868;45.184;5.786;2023-02-08T15:12:30;8.30;63.80
42199;DHT22;27868;45.184;5.786;2023-02-08T15:18:30;8.30;63.80
42199;DHT22;27868;45.184;5.786;2023-02-08T15:21:17;8.40;63.60
42199;DHT22;27868;45.184;5.786;2023-02-08T15:24:18;8.30;63.70
42199;DHT22;27868;45.184;5.786;2023-02-08T15:27:19;8.40;63.70
42199;DHT22;27868;45.184;5.786;2023-02-08T15:30:04;8.30;64.10
42199;DHT22;27868;45.184;5.786;2023-02-08T15:32:51;8.30;64.10
42199;DHT22;27868;45.184;5.786;2023-02-08T15:35:36;8.30;64.20
42199;DHT22;27868;45.184;5.786;2023-02-08T15:38:21;8.30;64.20
42199;DHT22;27868;45.184;5.786;2023-02-08T15:41:09;8.30;64.20
42199;DHT22;27868;45.184;5.786;2023-02-08T15:44:17;8.30;64.30
42199;DHT22;27868;45.184;5.786;2023-02-08T15:47:05;8.30;64.20
42199;DHT22;27868;45.184;5.786;2023-02-08T15:49:54;8.30;64.40
42199;DHT22;27868;45.184;5.786;2023-02-08T15:52:39;8.30;64.40
42199;DHT22;27868;45.184;5.786;2023-02-08T15:55:26;8.30;64.40
42199;DHT22;27868;45.184;5.786;2023-02-08T16:01:17;8.20;64.50
42199;DHT22;27868;45.184;5.786;2023-02-08T16:04:03;8.20;64.50
42199;DHT22;27868;45.184;5.786;2023-02-08T16:06:56;8.20;64.80
42199;DHT22;27868;45.184;5.786;2023-02-08T16:09:45;8.10;64.70
42199;DHT22;27868;45.184;5.786;2023-02-08T16:12:30;8.10;64.80
42199;DHT22;27868;45.184;5.786;2023-02-08T16:15:46;8.10;64.60
42199;DHT22;27868;45.184;5.786;2023-02-08T16:18:46;8.10;64.70
42199;DHT22;27868;45.184;5.786;2023-02-08T16:24:21;8.00;64.70
42199;DHT22;27868;45.184;5.786;2023-02-08T16:27:26;8.00;64.80
42199;DHT22;27868;45.184;5.786;2023-02-08T16:30:20;8.00;64.70
42199;DHT22;27868;45.184;5.786;2023-02-08T16:33:06;7.90;65.00
42199;DHT22;27868;45.184;5.786;2023-02-08T16:35:51;7.90;64.80
42199;DHT22;27868;45.184;5.786;2023-02-08T16:38:36;7.90;64.80
42199;DHT22;27868;45.184;5.786;2023-02-08T16:44:38;7.80;64.30
42199;DHT22;27868;45.184;5.786;2023-02-08T16:47:49;7.70;64.30
42199;DHT22;27868;45.184;5.786;2023-02-08T16:50:37;7.70;64.40
42199;DHT22;27868;45.184;5.786;2023-02-08T16:53:22;7.70;64.40
42199;DHT22;27868;45.184;5.786;2023-02-08T16:56:09;7.70;64.30
42199;DHT22;27868;45.184;5.786;2023-02-08T16:58:54;7.60;64.40
42199;DHT22;27868;45.184;5.786;2023-02-08T17:01:39;7.60;64.60
42199;DHT22;27868;45.184;5.786;2023-02-08T17:04:23;7.60;64.40
42199;DHT22;27868;45.184;5.786;2023-02-08T17:07:16;7.50;64.40
42199;DHT22;27868;45.184;5.786;2023-02-08T17:10:06;7.50;64.30
42199;DHT22;27868;45.184;5.786;2023-02-08T17:12:52;7.50;64.60
42199;DHT22;27868;45.184;5.786;2023-02-08T17:15:37;7.40;64.60
42199;DHT22;27868;45.184;5.786;2023-02-08T17:18:22;7.40;64.50
42199;DHT22;27868;45.184;5.786;2023-02-08T17:21:07;7.30;64.80
42199;DHT22;27868;45.184;5.786;2023-02-08T17:23:52;7.30;64.80
42199;DHT22;27868;45.184;5.786;2023-02-08T17:26:40;7.30;64.80
42199;DHT22;27868;45.184;5.786;2023-02-08T17:29:26;7.20;64.90
42199;DHT22;27868;45.184;5.786;2023-02-08T17:32:10;7.30;65.00
42199;DHT22;27868;45.184;5.786;2023-02-08T17:34:55;7.30;65.00
42199;DHT22;27868;45.184;5.786;2023-02-08T17:37:39;7.20;65.00
42199;DHT22;27868;45.184;5.786;2023-02-08T17:40:29;7.20;64.90
42199;DHT22;27868;45.184;5.786;2023-02-08T17:43:15;7.20;64.80
42199;DHT22;27868;45.184;5.786;2023-02-08T17:46:00;7.20;64.90
42199;DHT22;27868;45.184;5.786;2023-02-08T17:48:45;7.10;64.80
42199;DHT22;27868;45.184;5.786;2023-02-08T17:51:30;7.10;64.90
42199;DHT22;27868;45.184;5.786;2023-02-08T17:54:15;7.00;64.70
42199;DHT22;27868;45.184;5.786;2023-02-08T17:57:00;7.00;65.40
42199;DHT22;27868;45.184;5.786;2023-02-08T17:59:46;7.00;65.00
42199;DHT22;27868;45.184;5.786;2023-02-08T18:02:31;7.00;64.90
42199;DHT22;27868;45.184;5.786;2023-02-08T18:05:24;7.00;64.80
42199;DHT22;27868;45.184;5.786;2023-02-08T18:08:09;7.00;64.90
42199;DHT22;27868;45.184;5.786;2023-02-08T18:10:53;6.90;65.00
42199;DHT22;27868;45.184;5.786;2023-02-08T18:13:38;6.90;65.40
42199;DHT22;27868;45.184;5.786;2023-02-08T18:16:25;6.90;65.60
42199;DHT22;27868;45.184;5.786;2023-02-08T18:19:10;6.90;65.50
42199;DHT22;27868;45.184;5.786;2023-02-08T18:21:55;6.90;65.60
42199;DHT22;27868;45.184;5.786;2023-02-08T18:24:44;6.80;65.50
42199;DHT22;27868;45.184;5.786;2023-02-08T18:27:29;6.70;65.40
42199;DHT22;27868;45.184;5.786;2023-02-08T18:30:15;6.70;65.60
42199;DHT22;27868;45.184;5.786;2023-02-08T18:32:59;6.70;65.80
42199;DHT22;27868;45.184;5.786;2023-02-08T18:35:48;6.70;66.30
42199;DHT22;27868;45.184;5.786;2023-02-08T18:38:33;6.60;66.10
42199;DHT22;27868;45.184;5.786;2023-02-08T18:41:21;6.50;66.00
42199;DHT22;27868;45.184;5.786;2023-02-08T18:44:06;6.60;66.00
42199;DHT22;27868;45.184;5.786;2023-02-08T18:46:51;6.50;66.00
42199;DHT22;27868;45.184;5.786;2023-02-08T18:49:35;6.50;66.10
42199;DHT22;27868;45.184;5.786;2023-02-08T18:52:24;6.50;66.30
42199;DHT22;27868;45.184;5.786;2023-02-08T18:55:09;6.50;66.30
42199;DHT22;27868;45.184;5.786;2023-02-08T18:57:54;6.40;66.20
42199;DHT22;27868;45.184;5.786;2023-02-08T19:00:38;6.40;66.30
42199;DHT22;27868;45.184;5.786;2023-02-08T19:03:24;6.30;66.20
42199;DHT22;27868;45.184;5.786;2023-02-08T19:06:11;6.30;66.50
42199;DHT22;27868;45.184;5.786;2023-02-08T19:08:58;6.30;66.60
42199;DHT22;27868;45.184;5.786;2023-02-08T19:11:45;6.20;66.50
42199;DHT22;27868;45.184;5.786;2023-02-08T19:14:29;6.20;66.80
42199;DHT22;27868;45.184;5.786;2023-02-08T19:17:14;6.20;66.90
42199;DHT22;27868;45.184;5.786;2023-02-08T19:19:58;6.20;66.80
42199;DHT22;27868;45.184;5.786;2023-02-08T19:22:43;6.20;66.70
42199;DHT22;27868;45.184;5.786;2023-02-08T19:25:28;6.10;66.70
42199;DHT22;27868;45.184;5.786;2023-02-08T19:28:13;6.10;66.70
42199;DHT22;27868;45.184;5.786;2023-02-08T19:31:10;6.10;66.70
42199;DHT22;27868;45.184;5.786;2023-02-08T19:33:58;6.10;66.90
42199;DHT22;27868;45.184;5.786;2023-02-08T19:36:49;6.10;67.10
42199;DHT22;27868;45.184;5.786;2023-02-08T19:39:35;6.00;67.40
42199;DHT22;27868;45.184;5.786;2023-02-08T19:42:19;6.00;67.50
42199;DHT22;27868;45.184;5.786;2023-02-08T19:45:04;6.00;67.50
42199;DHT22;27868;45.184;5.786;2023-02-08T19:47:49;5.90;67.50
42199;DHT22;27868;45.184;5.786;2023-02-08T19:50:34;5.90;67.50
42199;DHT22;27868;45.184;5.786;2023-02-08T19:53:19;5.90;67.50
42199;DHT22;27868;45.184;5.786;2023-02-08T19:56:07;5.90;67.50
42199;DHT22;27868;45.184;5.786;2023-02-08T19:58:52;5.80;67.40
42199;DHT22;27868;45.184;5.786;2023-02-08T20:01:37;5.80;67.50
42199;DHT22;27868;45.184;5.786;2023-02-08T20:04:22;5.80;67.60
42199;DHT22;27868;45.184;5.786;2023-02-08T20:07:07;5.80;67.40